Terminal Aerodrome Forecast
Issued by NWS

Home | Current Version | Previous Version | Text Only | Print | Product List | Glossary On
Versions: 1 2 3 4 5 6 7 8 9 10 11 12 13 14 15 16 17 18 19 20 21 22 23 24 25 26 27 28 29 30 31 32 33 34 35 36 37 38 39 40 41 42 43 44 45
965
FTUS42 KGSP 301001 AAA
TAFHKY
TAF AMD
KHKY 301001Z 3010/0106 06005KT P6SM OVC007
     FM301500 05006KT P6SM SCT007 BKN012
     FM302100 08006KT P6SM -SHRA OVC020
      TEMPO 3022/0102 4SM TSRA OVC015CB
     FM010200 06005KT 5SM SHRA OVC010
     FM010300 06004KT 4SM -RA OVC003=

USA.gov is the U.S. government's official web portal to all federal, state and local government web resources and services.